createdAt,value
2022-12-14T00:01:40.543Z,0.60
2022-12-14T00:04:07.530Z,0.60
2022-12-14T00:06:34.432Z,0.60
2022-12-14T00:09:04.181Z,0.60
2022-12-14T00:11:32.698Z,0.63
2022-12-14T00:14:01.585Z,0.65
2022-12-14T00:16:30.599Z,0.60
2022-12-14T00:18:58.662Z,0.60
2022-12-14T00:21:26.517Z,0.70
2022-12-14T00:23:54.274Z,0.60
2022-12-14T00:26:26.372Z,0.60
2022-12-14T00:28:55.372Z,0.60
2022-12-14T00:31:23.279Z,0.63
2022-12-14T00:33:50.911Z,0.77
2022-12-14T00:36:18.485Z,0.70
2022-12-14T00:38:45.573Z,0.60
2022-12-14T00:41:12.826Z,0.60
2022-12-14T00:43:39.907Z,0.60
2022-12-14T00:46:06.829Z,0.60
2022-12-14T00:48:33.976Z,0.60
2022-12-14T00:51:00.806Z,0.70
2022-12-14T00:53:27.599Z,0.65
2022-12-14T00:55:54.328Z,0.60
2022-12-14T00:58:23.039Z,0.60
2022-12-14T01:01:00.786Z,0.80
2022-12-14T01:03:28.247Z,0.60
2022-12-14T01:05:55.331Z,0.70
2022-12-14T01:08:22.305Z,0.70
2022-12-14T01:10:50.338Z,0.60
2022-12-14T01:13:17.072Z,0.60
2022-12-14T01:15:43.878Z,0.60
2022-12-14T01:18:10.629Z,0.60
2022-12-14T01:20:37.317Z,0.60
2022-12-14T01:23:04.013Z,0.70
2022-12-14T01:25:30.752Z,0.60
2022-12-14T01:27:57.478Z,0.50
2022-12-14T01:30:24.276Z,0.60
2022-12-14T01:32:50.940Z,0.60
2022-12-14T01:35:17.624Z,0.60
2022-12-14T01:37:44.314Z,0.80
2022-12-14T01:40:11.317Z,0.60
2022-12-14T01:42:38.377Z,0.70
2022-12-14T01:45:06.107Z,0.60
2022-12-14T01:47:42.941Z,0.60
2022-12-14T01:50:24.918Z,0.60
2022-12-14T01:52:56.157Z,0.70
2022-12-14T01:55:27.016Z,0.60
2022-12-14T01:58:11.266Z,0.70
2022-12-14T02:00:38.626Z,0.60
2022-12-14T02:03:20.519Z,0.60
2022-12-14T02:05:53.641Z,0.70
2022-12-14T02:08:22.336Z,0.60
2022-12-14T02:10:50.455Z,0.60
2022-12-14T02:13:26.095Z,0.60
2022-12-14T02:15:53.105Z,0.60
2022-12-14T02:18:27.513Z,0.60
2022-12-14T02:21:03.032Z,0.70
2022-12-14T02:24:18.121Z,0.60
2022-12-14T02:27:06.224Z,0.60
2022-12-14T02:29:51.086Z,0.60
2022-12-14T02:32:34.201Z,0.60
2022-12-14T02:35:07.368Z,0.50
2022-12-14T02:37:53.981Z,0.40
2022-12-14T02:40:33.974Z,0.70
2022-12-14T02:43:30.494Z,0.73
2022-12-14T02:46:06.286Z,0.70
2022-12-14T02:49:06.313Z,0.70
2022-12-14T02:51:41.914Z,0.60
2022-12-14T02:54:17.076Z,0.60
2022-12-14T02:56:48.638Z,0.60
2022-12-14T02:59:16.963Z,0.70
2022-12-14T03:01:47.337Z,0.70
2022-12-14T03:04:15.047Z,0.60
2022-12-14T03:06:58.015Z,0.70
2022-12-14T03:09:26.841Z,0.50
2022-12-14T03:12:01.222Z,0.60
2022-12-14T03:14:34.652Z,0.60
2022-12-14T03:19:40.022Z,0.70
2022-12-14T03:22:29.042Z,0.73
2022-12-14T03:25:01.768Z,0.60
2022-12-14T03:27:51.833Z,0.50
2022-12-14T03:30:43.826Z,0.68
2022-12-14T03:33:12.454Z,0.60
2022-12-14T03:35:44.688Z,0.60
2022-12-14T03:38:35.907Z,0.60
2022-12-14T03:41:17.097Z,0.60
2022-12-14T03:43:53.121Z,0.73
2022-12-14T03:46:36.806Z,0.60
2022-12-14T03:49:21.498Z,0.68
2022-12-14T03:52:20.803Z,0.70
2022-12-14T03:55:01.026Z,0.70
2022-12-14T03:57:53.451Z,0.70
2022-12-14T04:00:22.816Z,0.70
2022-12-14T04:03:07.376Z,0.60
2022-12-14T04:05:49.100Z,0.60
2022-12-14T04:08:41.856Z,0.60
2022-12-14T04:11:30.845Z,0.70
2022-12-14T04:14:29.848Z,0.60
2022-12-14T04:17:17.557Z,0.60
2022-12-14T04:20:22.289Z,0.60
2022-12-14T04:22:56.089Z,0.90
2022-12-14T04:25:47.297Z,0.60
2022-12-14T04:28:44.303Z,0.70
2022-12-14T04:31:15.922Z,0.70
2022-12-14T04:33:48.448Z,0.80
2022-12-14T04:36:38.659Z,0.60
2022-12-14T04:39:08.923Z,0.70
2022-12-14T04:41:40.444Z,0.60
2022-12-14T04:44:18.233Z,0.50
2022-12-14T04:46:46.978Z,0.60
2022-12-14T04:49:23.889Z,0.60
2022-12-14T04:52:05.619Z,0.60
2022-12-14T04:54:41.460Z,0.60
2022-12-14T04:57:31.365Z,0.60
2022-12-14T05:00:00.729Z,0.70
2022-12-14T05:02:30.357Z,0.70
2022-12-14T05:05:00.964Z,0.70
2022-12-14T05:07:42.915Z,0.60
2022-12-14T05:10:15.139Z,0.65
2022-12-14T05:13:02.936Z,0.60
2022-12-14T05:15:41.220Z,0.60
2022-12-14T05:18:09.356Z,0.60
2022-12-14T05:20:36.537Z,0.60
2022-12-14T05:23:03.628Z,0.60
2022-12-14T05:25:30.306Z,0.60
2022-12-14T05:27:57.130Z,0.60
2022-12-14T05:30:23.995Z,0.60
2022-12-14T05:32:50.756Z,0.63
2022-12-14T05:35:17.510Z,0.70
2022-12-14T05:37:44.464Z,0.63
2022-12-14T05:40:11.781Z,0.60
2022-12-14T05:42:44.339Z,0.60
2022-12-14T05:45:13.158Z,0.70
2022-12-14T05:47:40.119Z,0.60
2022-12-14T05:50:07.447Z,0.60
2022-12-14T05:52:34.364Z,0.60
2022-12-14T05:55:04.521Z,0.60
2022-12-14T05:57:32.180Z,0.60
2022-12-14T05:59:58.926Z,0.63
2022-12-14T06:02:25.838Z,0.60
2022-12-14T06:04:52.555Z,0.65
2022-12-14T06:07:23.085Z,0.60
2022-12-14T06:12:19.402Z,0.68
2022-12-14T06:14:46.313Z,0.63
2022-12-14T06:17:13.099Z,0.60
2022-12-14T06:19:39.786Z,0.60
2022-12-14T06:22:06.418Z,0.60
2022-12-14T06:24:39.752Z,0.70
2022-12-14T06:27:06.591Z,0.65
2022-12-14T06:29:33.325Z,0.60
2022-12-14T06:32:01.497Z,0.60
2022-12-14T06:34:28.810Z,0.63
2022-12-14T06:36:55.653Z,0.60
2022-12-14T06:39:22.373Z,0.70
2022-12-14T06:41:51.290Z,0.60
2022-12-14T06:44:18.380Z,0.60
2022-12-14T06:46:45.336Z,0.63
2022-12-14T06:49:14.837Z,0.70
2022-12-14T06:51:42.259Z,0.60
2022-12-14T06:54:11.676Z,0.60
2022-12-14T06:56:39.112Z,0.60
2022-12-14T06:59:05.914Z,0.57
2022-12-14T07:01:32.759Z,0.60
2022-12-14T07:03:59.800Z,0.60
2022-12-14T07:06:29.127Z,0.60
2022-12-14T07:08:57.929Z,0.60
2022-12-14T07:11:26.287Z,0.70
2022-12-14T07:13:54.071Z,0.60
2022-12-14T07:16:23.996Z,0.68
2022-12-14T07:18:51.640Z,0.60
2022-12-14T07:21:20.126Z,0.70
2022-12-14T07:23:48.332Z,0.68
2022-12-14T07:26:21.011Z,0.60
2022-12-14T07:28:48.344Z,0.50
2022-12-14T07:31:26.566Z,0.70
2022-12-14T07:33:57.612Z,0.70
2022-12-14T07:36:26.064Z,0.60
2022-12-14T07:38:53.605Z,0.60
2022-12-14T07:41:25.632Z,0.60
2022-12-14T07:43:54.821Z,0.60
2022-12-14T07:46:26.867Z,0.60
2022-12-14T07:48:55.863Z,0.70
2022-12-14T07:51:26.472Z,0.50
2022-12-14T07:53:53.762Z,0.60
2022-12-14T07:56:25.071Z,0.50
2022-12-14T07:58:52.439Z,0.70
2022-12-14T08:01:24.869Z,0.60
2022-12-14T08:03:54.039Z,0.40
2022-12-14T08:06:22.728Z,0.50
2022-12-14T08:08:49.740Z,0.50
2022-12-14T08:11:17.297Z,0.60
2022-12-14T08:13:44.480Z,0.60
2022-12-14T08:16:13.872Z,0.60
2022-12-14T08:18:41.938Z,0.50
2022-12-14T08:21:10.973Z,0.60
2022-12-14T08:23:38.233Z,0.60
2022-12-14T08:26:06.841Z,0.50
2022-12-14T08:28:35.229Z,0.60
2022-12-14T08:31:07.071Z,0.60
2022-12-14T08:33:35.501Z,0.60
2022-12-14T08:36:07.514Z,0.63
2022-12-14T08:38:34.389Z,0.70
2022-12-14T08:41:09.244Z,0.52
2022-12-14T08:43:36.912Z,0.50
2022-12-14T08:46:04.885Z,0.60
2022-12-14T08:48:32.195Z,0.68
2022-12-14T08:51:03.502Z,0.60
2022-12-14T08:53:30.830Z,0.60
2022-12-14T08:55:58.883Z,0.60
2022-12-14T08:58:26.407Z,0.60
2022-12-14T09:01:00.999Z,0.50
2022-12-14T09:03:28.216Z,0.60
2022-12-14T09:05:55.591Z,0.60
2022-12-14T09:08:22.642Z,0.60
2022-12-14T09:10:52.550Z,0.65
2022-12-14T09:13:19.369Z,0.60
2022-12-14T09:15:46.076Z,0.50
2022-12-14T09:18:12.920Z,0.50
2022-12-14T09:20:39.707Z,0.50
2022-12-14T09:23:07.496Z,0.50
2022-12-14T09:25:35.174Z,0.50
2022-12-14T09:28:01.831Z,0.60
2022-12-14T09:30:32.025Z,0.60
2022-12-14T09:33:03.960Z,0.60
2022-12-14T09:35:55.556Z,0.50
2022-12-14T09:38:32.265Z,0.50
2022-12-14T09:41:06.903Z,0.40
2022-12-14T09:43:42.733Z,0.60
2022-12-14T09:46:24.534Z,0.50
2022-12-14T09:48:53.030Z,0.60
2022-12-14T09:51:22.097Z,0.50
2022-12-14T09:54:00.717Z,0.60
2022-12-14T09:56:29.062Z,0.60
2022-12-14T09:58:57.980Z,0.60
2022-12-14T10:02:14.061Z,0.60
2022-12-14T10:04:51.440Z,0.50
2022-12-14T10:07:22.460Z,0.55
2022-12-14T10:10:19.781Z,0.60
2022-12-14T10:12:59.046Z,0.50
2022-12-14T10:16:04.344Z,0.55
2022-12-14T10:19:03.618Z,0.60
2022-12-14T10:21:43.526Z,0.50
2022-12-14T10:24:17.679Z,0.50
2022-12-14T10:26:53.600Z,0.50
2022-12-14T10:29:29.189Z,0.65
2022-12-14T10:32:21.840Z,0.50
2022-12-14T10:34:52.458Z,0.60
2022-12-14T10:37:27.223Z,0.50
2022-12-14T10:40:13.807Z,0.52
2022-12-14T10:43:08.322Z,0.50
2022-12-14T10:45:56.689Z,0.50
2022-12-14T10:48:40.009Z,0.50
2022-12-14T10:51:17.210Z,0.40
2022-12-14T10:53:49.618Z,0.47
2022-12-14T10:56:26.458Z,0.50
2022-12-14T10:59:18.059Z,0.52
2022-12-14T11:01:47.753Z,0.50
2022-12-14T11:04:36.615Z,0.50
2022-12-14T11:07:09.213Z,0.50
2022-12-14T11:09:37.410Z,0.37
2022-12-14T11:12:13.118Z,0.40
2022-12-14T11:15:01.881Z,0.40
2022-12-14T11:17:39.576Z,0.40
2022-12-14T11:20:25.461Z,0.50
2022-12-14T11:23:05.938Z,0.45
2022-12-14T11:25:45.309Z,0.40
2022-12-14T11:28:18.193Z,0.40
2022-12-14T11:31:05.327Z,0.40
2022-12-14T11:33:38.038Z,0.40
2022-12-14T11:36:06.100Z,0.40
2022-12-14T11:38:33.026Z,0.40
2022-12-14T11:41:08.904Z,0.45
2022-12-14T11:43:40.671Z,0.50
2022-12-14T11:46:07.838Z,0.40
2022-12-14T11:48:38.536Z,0.50
2022-12-14T11:51:11.277Z,0.50
2022-12-14T11:53:38.416Z,0.43
2022-12-14T11:56:08.501Z,0.40
2022-12-14T11:58:46.403Z,0.40
2022-12-14T12:01:17.087Z,0.50
2022-12-14T12:03:53.572Z,0.40
2022-12-14T12:06:26.039Z,0.43
2022-12-14T12:08:59.784Z,0.30
2022-12-14T12:11:34.852Z,0.40
2022-12-14T12:14:05.163Z,0.50
2022-12-14T12:16:33.292Z,0.50
2022-12-14T12:19:14.854Z,0.38
2022-12-14T12:21:44.923Z,0.50
2022-12-14T12:24:20.607Z,0.38
2022-12-14T12:26:55.562Z,0.40
2022-12-14T12:29:31.190Z,0.40
2022-12-14T12:32:14.194Z,0.47
2022-12-14T12:34:40.900Z,0.30
2022-12-14T12:37:27.889Z,0.40
2022-12-14T12:40:02.388Z,0.32
2022-12-14T12:43:00.185Z,0.40
2022-12-14T12:45:36.086Z,0.40
2022-12-14T12:48:17.506Z,0.40
2022-12-14T12:50:50.070Z,0.40
2022-12-14T12:53:23.200Z,0.30
2022-12-14T12:55:57.501Z,0.25
2022-12-14T12:58:31.601Z,0.30
2022-12-14T13:01:02.814Z,0.50
2022-12-14T13:03:45.308Z,0.40
2022-12-14T13:06:21.700Z,0.40
2022-12-14T13:08:55.036Z,0.40
2022-12-14T13:11:28.174Z,0.40
2022-12-14T13:14:02.118Z,0.30
2022-12-14T13:16:38.594Z,0.30
2022-12-14T13:19:52.515Z,0.30
2022-12-14T13:22:30.448Z,0.40
2022-12-14T13:25:09.397Z,0.30
2022-12-14T13:27:43.952Z,0.40
2022-12-14T13:30:29.062Z,0.40
2022-12-14T13:33:26.784Z,0.40
2022-12-14T13:36:22.700Z,0.40
2022-12-14T13:39:21.951Z,0.40
2022-12-14T13:41:58.073Z,0.40
2022-12-14T13:44:58.520Z,0.40
2022-12-14T13:47:57.051Z,0.40
2022-12-14T13:50:37.093Z,0.40
2022-12-14T13:53:14.094Z,0.40
2022-12-14T13:55:47.654Z,0.40
2022-12-14T13:58:20.411Z,0.40
2022-12-14T14:01:02.431Z,0.20
2022-12-14T14:03:35.552Z,0.32
2022-12-14T14:06:11.856Z,0.30
2022-12-14T14:08:50.681Z,0.40
2022-12-14T14:11:39.391Z,0.30
2022-12-14T14:14:29.063Z,0.40
2022-12-14T14:17:14.681Z,0.40
2022-12-14T14:19:42.545Z,0.40
2022-12-14T14:22:26.011Z,0.50
2022-12-14T14:25:09.427Z,0.40
2022-12-14T14:27:39.864Z,0.35
2022-12-14T14:30:43.069Z,0.32
2022-12-14T14:33:46.676Z,0.40
2022-12-14T14:36:33.619Z,0.40
2022-12-14T14:39:54.796Z,0.40
2022-12-14T14:42:21.628Z,0.30
2022-12-14T14:44:54.198Z,0.40
2022-12-14T14:47:30.130Z,0.40
2022-12-14T14:50:21.591Z,0.30
2022-12-14T14:53:19.666Z,0.30
2022-12-14T14:55:58.593Z,0.47
2022-12-14T14:58:30.647Z,0.40
2022-12-14T15:01:12.398Z,0.40
2022-12-14T15:04:08.975Z,0.40
2022-12-14T15:06:41.440Z,0.40
2022-12-14T15:09:13.828Z,0.40
2022-12-14T15:11:50.700Z,0.40
2022-12-14T15:14:32.506Z,0.40
2022-12-14T15:17:11.358Z,0.45
2022-12-14T15:19:38.784Z,0.40
2022-12-14T15:22:07.873Z,0.40
2022-12-14T15:24:41.214Z,0.40
2022-12-14T15:27:30.018Z,0.30
2022-12-14T15:30:05.820Z,0.35
2022-12-14T15:32:33.360Z,0.30
2022-12-14T15:35:03.605Z,0.40
2022-12-14T15:37:45.586Z,0.40
2022-12-14T15:40:16.473Z,0.40
2022-12-14T15:43:01.043Z,0.47
2022-12-14T15:45:33.100Z,0.32
2022-12-14T15:48:16.390Z,0.40
2022-12-14T15:50:49.039Z,0.30
2022-12-14T15:53:29.024Z,0.33
2022-12-14T15:56:02.896Z,0.30
2022-12-14T15:58:39.199Z,0.40
2022-12-14T16:01:13.327Z,0.40
2022-12-14T16:03:44.791Z,0.40
2022-12-14T16:06:14.604Z,0.40
2022-12-14T16:08:50.574Z,0.45
2022-12-14T16:11:25.218Z,0.50
2022-12-14T16:13:52.454Z,0.47
2022-12-14T16:16:19.549Z,0.45
2022-12-14T16:18:50.601Z,0.47
2022-12-14T16:21:30.533Z,0.40
2022-12-14T16:23:58.597Z,0.40
2022-12-14T16:26:26.717Z,0.40
2022-12-14T16:29:28.668Z,0.40
2022-12-14T16:32:04.593Z,0.40
2022-12-14T16:34:31.681Z,0.30
2022-12-14T16:37:31.729Z,0.30
2022-12-14T16:42:20.857Z,0.40
2022-12-14T16:44:48.964Z,0.40
2022-12-14T16:47:15.784Z,0.40
2022-12-14T16:49:56.834Z,0.40
2022-12-14T16:52:36.363Z,0.30
2022-12-14T16:55:14.823Z,0.40
2022-12-14T16:57:53.646Z,0.40
2022-12-14T17:00:29.972Z,0.40
2022-12-14T17:03:00.749Z,0.40
2022-12-14T17:05:55.136Z,0.40
2022-12-14T17:08:21.951Z,0.50
2022-12-14T17:10:48.753Z,0.40
2022-12-14T17:13:15.660Z,0.50
2022-12-14T17:16:03.797Z,0.45
2022-12-14T17:18:34.645Z,0.30
2022-12-14T17:21:02.007Z,0.40
2022-12-14T17:23:29.229Z,0.40
2022-12-14T17:25:56.262Z,0.40
2022-12-14T17:28:26.772Z,0.40
2022-12-14T17:30:57.407Z,0.40
2022-12-14T17:33:28.918Z,0.40
2022-12-14T17:35:56.311Z,0.40
2022-12-14T17:38:23.983Z,0.40
2022-12-14T17:40:51.469Z,0.40
2022-12-14T17:43:21.035Z,0.45
2022-12-14T17:45:48.019Z,0.45
2022-12-14T17:48:16.086Z,0.40
2022-12-14T17:50:46.666Z,0.40
2022-12-14T17:53:15.105Z,0.40
2022-12-14T17:55:41.820Z,0.40
2022-12-14T17:58:10.413Z,0.32
2022-12-14T18:00:56.564Z,0.50
2022-12-14T18:03:23.761Z,0.40
2022-12-14T18:05:51.179Z,0.43
2022-12-14T18:08:21.560Z,0.40
2022-12-14T18:10:55.046Z,0.40
2022-12-14T18:13:21.803Z,0.30
2022-12-14T18:15:51.007Z,0.40
2022-12-14T18:18:22.619Z,0.40
2022-12-14T18:20:57.354Z,0.40
2022-12-14T18:23:24.373Z,0.40
2022-12-14T18:25:54.383Z,0.40
2022-12-14T18:28:21.928Z,0.38
2022-12-14T18:30:57.648Z,0.45
2022-12-14T18:33:27.279Z,0.40
2022-12-14T18:35:56.427Z,0.30
2022-12-14T18:38:23.840Z,0.40
2022-12-14T18:40:53.285Z,0.40
2022-12-14T18:43:25.021Z,0.40
2022-12-14T18:45:53.230Z,0.40
2022-12-14T18:48:20.629Z,0.47
2022-12-14T18:50:49.522Z,0.40
2022-12-14T18:53:19.340Z,0.40
2022-12-14T18:55:46.322Z,0.50
2022-12-14T18:58:18.481Z,0.43
2022-12-14T19:00:45.884Z,0.40
2022-12-14T19:03:15.224Z,0.40
2022-12-14T19:05:42.418Z,0.40
2022-12-14T19:08:10.641Z,0.40
2022-12-14T19:10:40.690Z,0.40
2022-12-14T19:13:09.742Z,0.45
2022-12-14T19:15:36.675Z,0.40
2022-12-14T19:18:03.647Z,0.40
2022-12-14T19:20:30.615Z,0.40
2022-12-14T19:22:57.484Z,0.40
2022-12-14T19:25:25.784Z,0.40
2022-12-14T19:30:39.849Z,0.50
2022-12-14T19:33:06.626Z,0.45
2022-12-14T19:35:33.446Z,0.40
2022-12-14T19:38:00.334Z,0.40
2022-12-14T19:40:27.193Z,0.40
2022-12-14T19:42:54.164Z,0.40
2022-12-14T19:45:21.068Z,0.40
2022-12-14T19:47:47.860Z,0.40
2022-12-14T19:50:15.643Z,0.40
2022-12-14T19:52:43.403Z,0.40
2022-12-14T19:55:11.734Z,0.45
2022-12-14T19:57:39.836Z,0.40
2022-12-14T20:00:08.001Z,0.40
2022-12-14T20:02:37.002Z,0.40
2022-12-14T20:05:05.760Z,0.40
2022-12-14T20:07:32.636Z,0.40
2022-12-14T20:09:59.358Z,0.50
2022-12-14T20:12:26.126Z,0.40
2022-12-14T20:14:52.864Z,0.40
2022-12-14T20:17:19.531Z,0.30
2022-12-14T20:19:46.362Z,0.40
2022-12-14T20:22:14.986Z,0.43
2022-12-14T20:24:42.423Z,0.40
2022-12-14T20:27:09.435Z,0.40
2022-12-14T20:29:37.281Z,0.40
2022-12-14T20:32:04.408Z,0.40
2022-12-14T20:34:31.262Z,0.40
2022-12-14T20:36:58.062Z,0.30
2022-12-14T20:39:24.909Z,0.32
2022-12-14T20:41:51.730Z,0.50
2022-12-14T20:44:18.441Z,0.40
2022-12-14T20:46:46.301Z,0.40
2022-12-14T20:49:18.412Z,0.40
2022-12-14T20:51:48.817Z,0.40
2022-12-14T20:54:18.307Z,0.40
2022-12-14T20:56:49.297Z,0.32
2022-12-14T20:59:16.680Z,0.40
2022-12-14T21:01:44.066Z,0.40
2022-12-14T21:04:11.043Z,0.43
2022-12-14T21:06:40.180Z,0.40
2022-12-14T21:09:15.276Z,0.40
2022-12-14T21:12:05.943Z,0.40
2022-12-14T21:14:38.480Z,0.40
2022-12-14T21:17:05.806Z,0.30
2022-12-14T21:19:33.723Z,0.45
2022-12-14T21:22:00.454Z,0.40
2022-12-14T21:27:20.713Z,0.40
2022-12-14T21:29:47.948Z,0.30
2022-12-14T21:32:15.444Z,0.40
2022-12-14T21:34:43.371Z,0.40
2022-12-14T21:37:13.081Z,0.43
2022-12-14T21:39:40.369Z,0.40
2022-12-14T21:42:10.530Z,0.40
2022-12-14T21:44:37.708Z,0.30
2022-12-14T21:47:07.394Z,0.47
2022-12-14T21:49:37.155Z,0.40
2022-12-14T21:52:07.332Z,0.40
2022-12-14T21:54:35.128Z,0.40
2022-12-14T21:57:20.690Z,0.40
2022-12-14T21:59:47.363Z,0.40
2022-12-14T22:02:20.490Z,0.40
2022-12-14T22:04:47.563Z,0.30
2022-12-14T22:07:18.842Z,0.40
2022-12-14T22:09:49.650Z,0.40
2022-12-14T22:12:18.522Z,0.38
2022-12-14T22:14:45.221Z,0.40
2022-12-14T22:17:14.673Z,0.40
2022-12-14T22:19:41.589Z,0.40
2022-12-14T22:22:13.238Z,0.47
2022-12-14T22:24:39.918Z,0.40
2022-12-14T22:27:06.678Z,0.40
2022-12-14T22:29:33.500Z,0.40
2022-12-14T22:32:00.352Z,0.40
2022-12-14T22:34:27.121Z,0.45
2022-12-14T22:36:53.870Z,0.40
2022-12-14T22:39:20.624Z,0.30
2022-12-14T22:41:49.016Z,0.40
2022-12-14T22:44:15.749Z,0.40
2022-12-14T22:46:42.530Z,0.40
2022-12-14T22:49:10.577Z,0.47
2022-12-14T22:51:37.232Z,0.40
2022-12-14T22:54:04.388Z,0.50
2022-12-14T22:56:45.421Z,0.40
2022-12-14T22:59:17.309Z,0.40
2022-12-14T23:01:49.887Z,0.60
2022-12-14T23:04:17.740Z,0.40
2022-12-14T23:06:45.165Z,0.40
2022-12-14T23:09:30.500Z,0.47
2022-12-14T23:12:21.293Z,0.40
2022-12-14T23:15:07.939Z,0.60
2022-12-14T23:17:53.658Z,0.40
2022-12-14T23:20:39.008Z,0.50
2022-12-14T23:23:26.607Z,0.40
2022-12-14T23:26:12.179Z,0.50
2022-12-14T23:28:57.481Z,0.40
2022-12-14T23:31:42.719Z,0.40
2022-12-14T23:34:27.938Z,0.40
2022-12-14T23:37:18.214Z,0.40
2022-12-14T23:40:06.752Z,0.40
2022-12-14T23:42:52.190Z,0.40
2022-12-14T23:45:38.272Z,0.40
2022-12-14T23:48:23.804Z,0.40
2022-12-14T23:51:09.642Z,0.40
2022-12-14T23:53:55.031Z,0.40
2022-12-14T23:56:40.465Z,0.50
2022-12-14T23:59:30.147Z,0.40
